Willow City, North Dakota
Current Conditions -  °F | °C
As of 5:15 PM on Saturday 25 Oct 2014 (Local Time) from KRUG Reporting Station
Clear Clear  
Wind Chill: 57°   Ceiling: Unl
Heat Index: 57°   Visibility: 10mi
Dew Point: 27°   Wind: 5mph
Humidity: 31%   Direction: 190°S
Pressure: 30.05"   Gusts: NA
Location:  48.6°N, 100.29°W
Report Text: KRUG 252215Z AUTO 19004KT 10SM CLR 14/M03 A3005 RMK AO2
Loading
Personal Weather Stations






























Interactive Weather Map
Tropical Storm Tracking
New forecast layout! Learn more

10-Day Weather Forecast

Advertisements
Track Severe Weather on mobile